Forside
METAR-TAF:

METAR-TAF

Lufthavne :

Jizan, Saudi-Arabien

Breddekreds: 16-54N, længdekreds: 042-35E, højde: 6 m

Aktuelle vejr

Denne rapport blev lavet for 22 minutter siden, kl. 02:00 UTC
Vind 3 kt fra øst
Temperatur 28°C
Fugtighed 66%
Tryk 1014 hPa
Sigt 10 km eller mere
Spredte skyer i en højde af 3000 ft
Spredte skyer i en højde af 10000 ft

METAR: OEGN 170200Z 09003KT 9999 SCT030 SCT100 28/21 Q1014 NOSIG

Tid: 05:22 (02:22 UTC)

Vejrudsigter

Denne rapport blev lavet for 3 timer og 22 minutter siden, kl. 23:00 UTC
Foreløbig gælder fra 17 på 00 UTC til 18 på 06 UTC
Vind 3 kt fra varierende retninger
Sigt: 8000 m
Spredte skyer i en højde af 3000 ft
Brudte skyer i en højde af 8000 ft
Sandsynlighed 30% :
Midlertidig
fra 17 på 00 UTC til 17 på 05 UTC
Nogle få skyer i en højde af 3500 ft, Cumulonimbus.
ændring
fra 17 på 06 UTC til 17 på 08 UTC
Vind 14 kt fra sydsydvest

TAF: OEGN 162300Z 1700/1806 VRB03KT 8000 SCT030 BKN080 PROB30 TEMPO 1700/1705 FEW035CB BECMG 1706/1708 21014KT

Vejrobservationer og prognoser fra mere end 4000 lufthavne (METAR og TAF).

De gule og røde prikker repræsenterer de meteorologiske stationer.

Flyt musen over at se navnet på stationen.

Så klik over at se vejr observationer og prognoser.

At skifte det kort: Klik på de grønne knapper med et sort kors for at zoome ind; på den grønne knap med en bindestreg for at zoome ud; eller på de grønne pile for tilstødende kort.


METAR-TAF: